createdAt,value
2023-05-31T00:00:30.894Z,3708.00
2023-05-31T00:01:30.933Z,3708.00
2023-05-31T00:02:31.142Z,3691.00
2023-05-31T00:03:31.122Z,3702.00
2023-05-31T00:04:31.126Z,3681.00
2023-05-31T00:05:31.192Z,3694.00
2023-05-31T00:06:31.220Z,3694.00
2023-05-31T00:07:31.276Z,3681.00
2023-05-31T00:08:31.356Z,3685.00
2023-05-31T00:09:31.398Z,3651.00
2023-05-31T00:10:31.446Z,3683.00
2023-05-31T00:11:31.508Z,3667.00
2023-05-31T00:12:31.565Z,3678.00
2023-05-31T00:13:31.599Z,3661.00
2023-05-31T00:14:31.677Z,3668.00
2023-05-31T00:15:31.708Z,3668.00
2023-05-31T00:17:03.377Z,3656.00
2023-05-31T00:18:32.857Z,3658.00
2023-05-31T00:19:31.757Z,3662.00
2023-05-31T00:20:31.806Z,3666.00
2023-05-31T00:21:31.722Z,3662.00
2023-05-31T00:22:31.725Z,3668.00
2023-05-31T00:23:31.771Z,3651.00
2023-05-31T00:24:31.704Z,3650.00
2023-05-31T00:25:31.706Z,3635.00
2023-05-31T00:26:31.726Z,3649.00
2023-05-31T00:27:31.736Z,3638.00
2023-05-31T00:28:31.813Z,3634.00
2023-05-31T00:29:31.718Z,3633.00
2023-05-31T00:30:31.709Z,3623.00
2023-05-31T00:31:31.774Z,3635.00
2023-05-31T00:32:31.693Z,3622.00
2023-05-31T00:33:31.664Z,3630.00
2023-05-31T00:34:31.681Z,3609.00
2023-05-31T00:35:31.658Z,3607.00
2023-05-31T00:36:31.703Z,3604.00
2023-05-31T00:37:31.631Z,3605.00
2023-05-31T00:38:31.635Z,3607.00
2023-05-31T00:39:31.721Z,3589.00
2023-05-31T00:40:31.747Z,3594.00
2023-05-31T00:41:31.840Z,3594.00
2023-05-31T00:42:31.905Z,3588.00
2023-05-31T00:43:31.913Z,3585.00
2023-05-31T00:44:32.009Z,3586.00
2023-05-31T00:45:32.039Z,3580.00
2023-05-31T00:46:32.114Z,3585.00
2023-05-31T00:47:32.207Z,3580.00
2023-05-31T00:48:32.243Z,3578.00
2023-05-31T00:49:32.299Z,3571.00
2023-05-31T00:50:32.336Z,3547.00
2023-05-31T00:51:32.401Z,3560.00
2023-05-31T00:52:32.491Z,3548.00
2023-05-31T00:53:32.536Z,3559.00
2023-05-31T00:54:32.571Z,3557.00
2023-05-31T00:55:32.647Z,3564.00
2023-05-31T00:56:32.702Z,3552.00
2023-05-31T00:57:32.769Z,3549.00
2023-05-31T00:58:32.846Z,3542.00
2023-05-31T00:59:32.912Z,3540.00
2023-05-31T01:00:32.941Z,3544.00
2023-05-31T01:01:33.008Z,3529.00
2023-05-31T01:02:33.108Z,3529.00
2023-05-31T01:03:33.161Z,3524.00
2023-05-31T01:04:33.195Z,3529.00
2023-05-31T01:05:33.254Z,3517.00
2023-05-31T01:06:33.668Z,3504.00
2023-05-31T01:07:33.409Z,3516.00
2023-05-31T01:08:33.455Z,3518.00
2023-05-31T01:09:33.511Z,3509.00
2023-05-31T01:10:33.569Z,3505.00
2023-05-31T01:11:33.649Z,3505.00
2023-05-31T01:12:33.691Z,3491.00
2023-05-31T01:13:33.721Z,3488.00
2023-05-31T01:14:33.757Z,3480.00
2023-05-31T01:15:33.816Z,3483.00
2023-05-31T01:16:33.899Z,3495.00
2023-05-31T01:17:33.945Z,3485.00
2023-05-31T01:18:34.011Z,3470.00
2023-05-31T01:19:34.056Z,3468.00
2023-05-31T01:20:34.319Z,3470.00
2023-05-31T01:21:34.108Z,3447.00
2023-05-31T01:22:34.174Z,3440.00
2023-05-31T01:23:35.354Z,3456.00
2023-05-31T01:24:34.178Z,3472.00
2023-05-31T01:25:34.178Z,3463.00
2023-05-31T01:26:34.171Z,3458.00
2023-05-31T01:27:34.156Z,3454.00
2023-05-31T01:28:34.137Z,3433.00
2023-05-31T01:29:34.112Z,3433.00
2023-05-31T01:30:34.142Z,3429.00
2023-05-31T01:31:34.131Z,3436.00
2023-05-31T01:32:34.202Z,3415.00
2023-05-31T01:33:34.113Z,3419.00
2023-05-31T01:34:34.102Z,3416.00
2023-05-31T01:35:34.083Z,3412.00
2023-05-31T01:36:34.114Z,3410.00
2023-05-31T01:37:34.064Z,3404.00
2023-05-31T01:38:34.077Z,3403.00
2023-05-31T01:39:34.092Z,3408.00
2023-05-31T01:40:34.046Z,3394.00
2023-05-31T01:41:34.045Z,3393.00
2023-05-31T01:42:34.056Z,3386.00
2023-05-31T01:43:34.065Z,3387.00
2023-05-31T01:44:34.054Z,3381.00
2023-05-31T01:45:34.050Z,3379.00
2023-05-31T01:46:34.024Z,3381.00
2023-05-31T01:47:34.132Z,3374.00
2023-05-31T01:48:34.004Z,3367.00
2023-05-31T01:49:33.979Z,3360.00
2023-05-31T01:50:34.015Z,3368.00
2023-05-31T01:51:34.016Z,3361.00
2023-05-31T01:52:33.985Z,3362.00
2023-05-31T01:53:33.974Z,3351.00
2023-05-31T01:54:33.950Z,3341.00
2023-05-31T01:55:33.964Z,3347.00
2023-05-31T01:56:33.944Z,3352.00
2023-05-31T01:57:33.931Z,3334.00
2023-05-31T01:58:33.911Z,3342.00
2023-05-31T01:59:33.931Z,3339.00
2023-05-31T02:00:33.925Z,3329.00
2023-05-31T02:01:33.982Z,3323.00
2023-05-31T02:02:33.970Z,3330.00
2023-05-31T02:03:33.959Z,3323.00
2023-05-31T02:04:33.907Z,3328.00
2023-05-31T02:05:33.894Z,3318.00
2023-05-31T02:06:33.886Z,3318.00
2023-05-31T02:07:33.881Z,3316.00
2023-05-31T02:08:33.856Z,3310.00
2023-05-31T02:09:33.860Z,3303.00
2023-05-31T02:10:33.851Z,3303.00
2023-05-31T02:11:33.851Z,3298.00
2023-05-31T02:12:33.843Z,3292.00
2023-05-31T02:13:33.828Z,3293.00
2023-05-31T02:14:33.823Z,3303.00
2023-05-31T02:15:33.847Z,3292.00
2023-05-31T02:16:33.840Z,3291.00
2023-05-31T02:17:33.826Z,3279.00
2023-05-31T02:18:33.812Z,3274.00
2023-05-31T02:19:33.802Z,3264.00
2023-05-31T02:20:33.885Z,3275.00
2023-05-31T02:21:33.761Z,3280.00
2023-05-31T02:22:33.796Z,3262.00
2023-05-31T02:23:33.805Z,3265.00
2023-05-31T02:24:33.783Z,3260.00
2023-05-31T02:25:33.848Z,3253.00
2023-05-31T02:26:33.855Z,3256.00
2023-05-31T02:27:33.860Z,3242.00
2023-05-31T02:28:33.867Z,3229.00
2023-05-31T02:29:33.874Z,3239.00
2023-05-31T02:30:33.879Z,3239.00
2023-05-31T02:31:33.945Z,3240.00
2023-05-31T02:32:33.916Z,3238.00
2023-05-31T02:33:33.899Z,3229.00
2023-05-31T02:34:33.919Z,3226.00
2023-05-31T02:35:33.914Z,3220.00
2023-05-31T02:36:33.937Z,3221.00
2023-05-31T02:37:33.925Z,3224.00
2023-05-31T02:38:33.934Z,3211.00
2023-05-31T02:39:33.944Z,3219.00
2023-05-31T02:40:33.946Z,3210.00
2023-05-31T02:41:33.936Z,3201.00
2023-05-31T02:42:33.966Z,3194.00
2023-05-31T02:43:33.983Z,3195.00
2023-05-31T02:44:33.971Z,3203.00
2023-05-31T02:45:33.991Z,3182.00
2023-05-31T02:46:34.036Z,3188.00
2023-05-31T02:47:33.965Z,3194.00
2023-05-31T02:48:33.974Z,3178.00
2023-05-31T02:49:33.990Z,3179.00
2023-05-31T02:50:33.971Z,3181.00
2023-05-31T02:51:33.986Z,3179.00
2023-05-31T02:52:33.987Z,3178.00
2023-05-31T02:53:33.959Z,3171.00
2023-05-31T02:54:33.977Z,3164.00
2023-05-31T02:55:34.023Z,3167.00
2023-05-31T02:56:34.007Z,3161.00
2023-05-31T02:57:34.027Z,3152.00
2023-05-31T02:58:34.032Z,3155.00
2023-05-31T02:59:34.036Z,3153.00
2023-05-31T03:00:34.048Z,3150.00
2023-05-31T03:01:34.087Z,3151.00
2023-05-31T03:02:34.108Z,3141.00
2023-05-31T03:03:34.107Z,3132.00
2023-05-31T03:04:34.029Z,3123.00
2023-05-31T03:05:34.055Z,3137.00
2023-05-31T03:06:34.092Z,3138.00
2023-05-31T03:07:34.054Z,3134.00
2023-05-31T03:08:34.066Z,3121.00
2023-05-31T03:09:34.064Z,3121.00
2023-05-31T03:10:34.058Z,3118.00
2023-05-31T03:11:34.074Z,3116.00
2023-05-31T03:12:34.089Z,3119.00
2023-05-31T03:13:34.085Z,3117.00
2023-05-31T03:14:34.099Z,3109.00
2023-05-31T03:15:34.087Z,3108.00
2023-05-31T03:16:34.144Z,3102.00
2023-05-31T03:17:34.137Z,3107.00
2023-05-31T03:18:34.123Z,3098.00
2023-05-31T03:19:34.116Z,3096.00
2023-05-31T03:20:34.231Z,3081.00
2023-05-31T03:21:34.092Z,3092.00
2023-05-31T03:22:34.072Z,3087.00
2023-05-31T03:23:34.090Z,3083.00
2023-05-31T03:24:34.121Z,3076.00
2023-05-31T03:25:34.116Z,3061.00
2023-05-31T03:26:34.136Z,3079.00
2023-05-31T03:27:34.145Z,3078.00
2023-05-31T03:28:34.153Z,3067.00
2023-05-31T03:29:34.156Z,3065.00
2023-05-31T03:30:34.165Z,3062.00
2023-05-31T03:31:34.232Z,3052.00
2023-05-31T03:32:35.475Z,3060.00
2023-05-31T03:33:34.187Z,3053.00
2023-05-31T03:34:34.204Z,3053.00
2023-05-31T03:35:34.192Z,3044.00
2023-05-31T03:36:34.193Z,3040.00
2023-05-31T03:37:34.168Z,3049.00
2023-05-31T03:38:34.166Z,3043.00
2023-05-31T03:39:34.181Z,3035.00
2023-05-31T03:40:34.157Z,3030.00
2023-05-31T03:41:34.133Z,3025.00
2023-05-31T03:42:34.142Z,3023.00
2023-05-31T03:43:34.148Z,3037.00
2023-05-31T03:44:34.118Z,3022.00
2023-05-31T03:45:34.119Z,3026.00
2023-05-31T03:46:34.149Z,3020.00
2023-05-31T03:47:34.114Z,3015.00
2023-05-31T03:48:34.093Z,3017.00
2023-05-31T03:49:34.098Z,3016.00
2023-05-31T03:50:34.089Z,3008.00
2023-05-31T03:51:34.078Z,3009.00
2023-05-31T03:52:34.064Z,3011.00
2023-05-31T03:53:34.056Z,3016.00
2023-05-31T03:54:34.058Z,2995.00
2023-05-31T03:55:34.071Z,3004.00
2023-05-31T03:56:34.035Z,2996.00
2023-05-31T03:57:34.034Z,2997.00
2023-05-31T03:58:34.049Z,2989.00
2023-05-31T03:59:34.019Z,2996.00
2023-05-31T04:00:34.002Z,2987.00
2023-05-31T04:01:34.021Z,2977.00
2023-05-31T04:02:34.109Z,2991.00
2023-05-31T04:03:34.117Z,2978.00
2023-05-31T04:04:34.071Z,2975.00
2023-05-31T04:05:33.984Z,2975.00
2023-05-31T04:06:34.009Z,2968.00
2023-05-31T04:07:33.988Z,2964.00
2023-05-31T04:08:33.955Z,2983.00
2023-05-31T04:09:33.956Z,2957.00
2023-05-31T04:10:33.970Z,2970.00
2023-05-31T04:11:33.945Z,2959.00
2023-05-31T04:12:33.951Z,2963.00
2023-05-31T04:13:33.949Z,2956.00
2023-05-31T04:14:33.920Z,2958.00
2023-05-31T04:15:33.898Z,2955.00
2023-05-31T04:16:34.016Z,2947.00
2023-05-31T04:17:33.935Z,2952.00
2023-05-31T04:18:33.876Z,2951.00
2023-05-31T04:19:33.896Z,2938.00
2023-05-31T04:20:33.939Z,2939.00
2023-05-31T04:21:33.903Z,2928.00
2023-05-31T04:22:33.853Z,2933.00
2023-05-31T04:23:33.862Z,2935.00
2023-05-31T04:24:33.834Z,2931.00
2023-05-31T04:25:33.858Z,2936.00
2023-05-31T04:26:33.833Z,2929.00
2023-05-31T04:27:33.818Z,2930.00
2023-05-31T04:28:33.807Z,2929.00
2023-05-31T04:29:33.844Z,2919.00
2023-05-31T04:30:33.948Z,2922.00
2023-05-31T04:31:49.951Z,2913.00
2023-05-31T04:32:34.914Z,2915.00
2023-05-31T04:33:33.783Z,2915.00
2023-05-31T04:34:33.807Z,2917.00
2023-05-31T04:35:33.748Z,2923.00
2023-05-31T04:36:33.772Z,2923.00
2023-05-31T04:37:35.850Z,2928.00
2023-05-31T04:38:33.763Z,2917.00
2023-05-31T04:39:33.770Z,2911.00
2023-05-31T04:40:33.768Z,2907.00
2023-05-31T04:41:33.740Z,2914.00
2023-05-31T04:42:33.733Z,2900.00
2023-05-31T04:43:33.717Z,2906.00
2023-05-31T04:44:33.705Z,2900.00
2023-05-31T04:45:33.898Z,2868.00
2023-05-31T04:46:33.724Z,2896.00
2023-05-31T04:47:33.698Z,2883.00
2023-05-31T04:48:33.690Z,2887.00
2023-05-31T04:49:43.534Z,2885.00
2023-05-31T04:50:34.672Z,2886.00
2023-05-31T04:51:33.674Z,2888.00
2023-05-31T04:52:33.692Z,2888.00
2023-05-31T04:53:33.645Z,2851.00
2023-05-31T04:54:33.662Z,2816.00
2023-05-31T04:55:33.642Z,2788.00
2023-05-31T04:56:33.625Z,2811.00
2023-05-31T04:57:33.611Z,2984.00
2023-05-31T04:58:33.606Z,3085.00
2023-05-31T04:59:33.618Z,3107.00
2023-05-31T05:00:33.663Z,3023.00
2023-05-31T05:01:33.689Z,2969.00
2023-05-31T05:02:33.772Z,2931.00
2023-05-31T05:03:33.865Z,2897.00
2023-05-31T05:04:33.857Z,2920.00
2023-05-31T05:05:33.861Z,2947.00
2023-05-31T05:06:33.975Z,3004.00
2023-05-31T05:07:33.973Z,3085.00
2023-05-31T05:08:34.056Z,3238.00
2023-05-31T05:09:34.095Z,3218.00
2023-05-31T05:10:34.152Z,3420.00
2023-05-31T05:11:34.188Z,3530.00
2023-05-31T05:12:34.224Z,3450.00
2023-05-31T05:13:34.273Z,3397.00
2023-05-31T05:14:34.275Z,3453.00
2023-05-31T05:15:34.314Z,3518.00
2023-05-31T05:16:34.332Z,3517.00
2023-05-31T05:17:34.389Z,3440.00
2023-05-31T05:18:34.334Z,3520.00
2023-05-31T05:19:34.352Z,3526.00
2023-05-31T05:20:34.371Z,3562.00
2023-05-31T05:21:34.375Z,3535.00
2023-05-31T05:22:34.369Z,3551.00
2023-05-31T05:23:34.470Z,3430.00
2023-05-31T05:24:34.367Z,3419.00
2023-05-31T05:25:34.385Z,3414.00
2023-05-31T05:26:34.402Z,3435.00
2023-05-31T05:27:34.393Z,3446.00
2023-05-31T05:28:34.419Z,3403.00
2023-05-31T05:29:34.444Z,3333.00
2023-05-31T05:30:34.472Z,3314.00
2023-05-31T05:31:34.592Z,3275.00
2023-05-31T05:32:34.608Z,3286.00
2023-05-31T05:33:34.566Z,3230.00
2023-05-31T05:34:34.572Z,3184.00
2023-05-31T05:35:34.562Z,3196.00
2023-05-31T05:36:34.638Z,3187.00
2023-05-31T05:37:34.652Z,3165.00
2023-05-31T05:38:34.911Z,3137.00
2023-05-31T05:39:34.911Z,3088.00
2023-05-31T05:40:35.635Z,3086.00
2023-05-31T05:41:35.451Z,3054.00
2023-05-31T05:42:34.936Z,3014.00
2023-05-31T05:43:35.037Z,2990.00
2023-05-31T05:44:35.061Z,2978.00
2023-05-31T05:45:35.047Z,3007.00
2023-05-31T05:46:35.164Z,2961.00
2023-05-31T05:47:35.196Z,2943.00
2023-05-31T05:48:35.234Z,2947.00
2023-05-31T05:49:35.290Z,2880.00
2023-05-31T05:50:35.357Z,2887.00
2023-05-31T05:51:35.397Z,2874.00
2023-05-31T05:52:35.461Z,2818.00
2023-05-31T05:53:35.512Z,2795.00
2023-05-31T05:54:36.872Z,2838.00
2023-05-31T05:55:35.635Z,2852.00
2023-05-31T05:56:35.709Z,2807.00
2023-05-31T05:57:35.751Z,2889.00
2023-05-31T05:58:35.804Z,2882.00
2023-05-31T05:59:35.858Z,2852.00
2023-05-31T06:00:35.901Z,2841.00
2023-05-31T06:01:36.466Z,2859.00
2023-05-31T06:02:36.040Z,3360.00
2023-05-31T06:03:36.147Z,3469.00
2023-05-31T06:04:36.113Z,3157.00
2023-05-31T06:05:36.127Z,3017.00
2023-05-31T06:06:36.152Z,2920.00
2023-05-31T06:07:36.162Z,2910.00
2023-05-31T06:08:36.189Z,2843.00
2023-05-31T06:09:36.196Z,2843.00
2023-05-31T06:10:36.260Z,2798.00
2023-05-31T06:11:36.273Z,2789.00
2023-05-31T06:12:36.266Z,2751.00
2023-05-31T06:13:36.324Z,2766.00
2023-05-31T06:14:36.350Z,2780.00
2023-05-31T06:15:36.350Z,2743.00
2023-05-31T06:16:36.510Z,2747.00
2023-05-31T06:17:36.392Z,2773.00
2023-05-31T06:18:36.392Z,2740.00
2023-05-31T06:19:36.440Z,2699.00
2023-05-31T06:20:36.667Z,2720.00
2023-05-31T06:21:36.854Z,2710.00
2023-05-31T06:22:36.597Z,2736.00
2023-05-31T06:23:36.664Z,2711.00
2023-05-31T06:24:36.657Z,2695.00
2023-05-31T06:25:36.613Z,2722.00
2023-05-31T06:26:36.655Z,2696.00
2023-05-31T06:27:36.659Z,2664.00
2023-05-31T06:28:37.918Z,2628.00
2023-05-31T06:29:36.755Z,2591.00
2023-05-31T06:30:36.811Z,2608.00
2023-05-31T06:31:36.828Z,2606.00
2023-05-31T06:32:36.850Z,2593.00
2023-05-31T06:33:36.830Z,2494.00
2023-05-31T06:34:36.853Z,2485.00
2023-05-31T06:35:36.900Z,2477.00
2023-05-31T06:36:36.936Z,2430.00
2023-05-31T06:37:36.948Z,2513.00
2023-05-31T06:38:36.997Z,2519.00
2023-05-31T06:39:37.016Z,2527.00
2023-05-31T06:40:37.056Z,2486.00
2023-05-31T06:41:37.101Z,2496.00
2023-05-31T06:42:37.125Z,2487.00
2023-05-31T06:43:37.175Z,2492.00
2023-05-31T06:44:44.125Z,2477.00
2023-05-31T06:45:38.442Z,2479.00
2023-05-31T06:46:37.526Z,2481.00
2023-05-31T06:47:37.550Z,2482.00
2023-05-31T06:48:37.588Z,2455.00
2023-05-31T06:49:37.663Z,2461.00
2023-05-31T06:50:37.705Z,2479.00
2023-05-31T06:51:37.726Z,2469.00
2023-05-31T06:52:37.713Z,2402.00
2023-05-31T06:53:37.754Z,2351.00
2023-05-31T06:54:37.769Z,2377.00
2023-05-31T06:55:40.023Z,2299.00
2023-05-31T06:56:37.871Z,2245.00
2023-05-31T06:57:38.404Z,2233.00
2023-05-31T06:58:37.873Z,2420.00
2023-05-31T06:59:37.894Z,2476.00
2023-05-31T07:00:37.852Z,2527.00
2023-05-31T07:01:37.998Z,2490.00
2023-05-31T07:02:37.866Z,2557.00
2023-05-31T07:03:37.966Z,2671.00
2023-05-31T07:04:37.938Z,2638.00
2023-05-31T07:05:37.956Z,2588.00
2023-05-31T07:06:37.959Z,2575.00
2023-05-31T07:07:37.981Z,2643.00
2023-05-31T07:08:37.993Z,2747.00
2023-05-31T07:09:37.990Z,2762.00
2023-05-31T07:10:38.071Z,2741.00
2023-05-31T07:11:38.069Z,2708.00
2023-05-31T07:12:38.100Z,2703.00
2023-05-31T07:13:38.081Z,2731.00
2023-05-31T07:14:38.149Z,2743.00
2023-05-31T07:15:38.363Z,2750.00
2023-05-31T07:16:38.386Z,2677.00
2023-05-31T07:17:38.294Z,2704.00
2023-05-31T07:18:38.274Z,2636.00
2023-05-31T07:19:38.350Z,2630.00
2023-05-31T07:20:38.398Z,2644.00
2023-05-31T07:21:38.415Z,2645.00
2023-05-31T07:22:38.461Z,2675.00
2023-05-31T07:23:38.467Z,2737.00
2023-05-31T07:24:38.475Z,2792.00
2023-05-31T07:25:38.484Z,2825.00
2023-05-31T07:26:38.512Z,2850.00
2023-05-31T07:27:38.560Z,2869.00
2023-05-31T07:28:38.564Z,2881.00
2023-05-31T07:29:38.607Z,2928.00
2023-05-31T07:30:38.642Z,2845.00
2023-05-31T07:31:38.672Z,2769.00
2023-05-31T07:32:38.787Z,2797.00
2023-05-31T07:33:38.719Z,2854.00
2023-05-31T07:34:38.673Z,2834.00
2023-05-31T07:35:39.677Z,2834.00
2023-05-31T07:36:38.666Z,2840.00
2023-05-31T07:37:39.166Z,2697.00
2023-05-31T07:38:38.647Z,2741.00
2023-05-31T07:39:38.636Z,2718.00
2023-05-31T07:40:38.632Z,2594.00
2023-05-31T07:41:38.928Z,2680.00
2023-05-31T07:42:38.619Z,2669.00
2023-05-31T07:43:38.605Z,2670.00
2023-05-31T07:44:38.617Z,2525.00
2023-05-31T07:45:38.589Z,2574.00
2023-05-31T07:46:38.610Z,2603.00
2023-05-31T07:47:38.601Z,2624.00
2023-05-31T07:48:38.647Z,2482.00
2023-05-31T07:49:38.581Z,2457.00
2023-05-31T07:50:38.633Z,2439.00
2023-05-31T07:51:38.931Z,2460.00
2023-05-31T07:52:38.570Z,2696.00
2023-05-31T07:53:38.589Z,2614.00
2023-05-31T07:54:38.543Z,2695.00
2023-05-31T07:55:38.548Z,2796.00
2023-05-31T07:56:39.444Z,2863.00
2023-05-31T07:57:38.521Z,2859.00
2023-05-31T07:58:38.514Z,2868.00
2023-05-31T07:59:39.427Z,2806.00
2023-05-31T08:00:38.492Z,2863.00
2023-05-31T08:01:38.937Z,2859.00
2023-05-31T08:02:38.791Z,2888.00
2023-05-31T08:03:38.786Z,2879.00
2023-05-31T08:04:39.648Z,2881.00
2023-05-31T08:05:38.640Z,2890.00
2023-05-31T08:06:38.630Z,2871.00
2023-05-31T08:07:38.642Z,2881.00
2023-05-31T08:08:38.635Z,2921.00
2023-05-31T08:09:38.639Z,2976.00
2023-05-31T08:10:38.605Z,2979.00
2023-05-31T08:11:38.583Z,3008.00
2023-05-31T08:12:38.625Z,2945.00
2023-05-31T08:13:38.657Z,2884.00
2023-05-31T08:14:38.730Z,2889.00
2023-05-31T08:15:38.793Z,2924.00
2023-05-31T08:16:38.974Z,2938.00
2023-05-31T08:17:38.951Z,2940.00
2023-05-31T08:18:38.994Z,2903.00
2023-05-31T08:19:39.006Z,2885.00
2023-05-31T08:20:39.155Z,2871.00
2023-05-31T08:21:39.428Z,2886.00
2023-05-31T08:22:39.121Z,2894.00
2023-05-31T08:23:39.150Z,2875.00
2023-05-31T08:24:39.234Z,2893.00
2023-05-31T08:25:39.278Z,2888.00
2023-05-31T08:26:39.436Z,2872.00
2023-05-31T08:27:39.435Z,2863.00
2023-05-31T08:28:39.482Z,2866.00
2023-05-31T08:29:39.526Z,2811.00
2023-05-31T08:30:39.678Z,2797.00
2023-05-31T08:31:40.100Z,2772.00
2023-05-31T08:32:39.697Z,2757.00
2023-05-31T08:33:39.756Z,2756.00
2023-05-31T08:34:39.804Z,2765.00
2023-05-31T08:35:39.860Z,2768.00
2023-05-31T08:36:39.922Z,2754.00
2023-05-31T08:37:39.945Z,2776.00
2023-05-31T08:38:39.982Z,2790.00
2023-05-31T08:39:40.046Z,2766.00
2023-05-31T08:40:40.092Z,2778.00
2023-05-31T08:41:40.153Z,2795.00
2023-05-31T08:42:40.126Z,2833.00
2023-05-31T08:43:40.211Z,3003.00
2023-05-31T08:44:40.249Z,2987.00
2023-05-31T08:45:40.319Z,2357.00
2023-05-31T08:46:40.422Z,2330.00
2023-05-31T08:47:40.441Z,2308.00
2023-05-31T08:48:40.480Z,2272.00
2023-05-31T08:49:40.551Z,2239.00
2023-05-31T08:50:40.596Z,2261.00
2023-05-31T08:51:40.936Z,2285.00
2023-05-31T08:52:40.653Z,2173.00
2023-05-31T08:53:40.667Z,2187.00
2023-05-31T08:54:40.683Z,2158.00
2023-05-31T08:55:40.717Z,2089.00
2023-05-31T08:56:44.144Z,2056.00
2023-05-31T08:57:40.695Z,2074.00
2023-05-31T08:58:40.726Z,2032.00
2023-05-31T08:59:40.742Z,2025.00
2023-05-31T09:00:40.714Z,1958.00
2023-05-31T09:01:40.722Z,1917.00
2023-05-31T09:02:40.694Z,1908.00
2023-05-31T09:03:40.653Z,1917.00
2023-05-31T09:04:40.719Z,1833.00
2023-05-31T09:05:40.677Z,1803.00
2023-05-31T09:06:40.632Z,1746.00
2023-05-31T09:07:40.654Z,1749.00
2023-05-31T09:08:40.651Z,1712.00
2023-05-31T09:09:40.632Z,1628.00
2023-05-31T09:10:40.649Z,1646.00
2023-05-31T09:11:40.640Z,1570.00
2023-05-31T09:12:40.607Z,1490.00
2023-05-31T09:13:40.607Z,1465.00
2023-05-31T09:14:40.589Z,1485.00
2023-05-31T09:15:40.589Z,1444.00
2023-05-31T09:16:40.633Z,1465.00
2023-05-31T09:17:40.676Z,1386.00
2023-05-31T09:18:40.670Z,1371.00
2023-05-31T09:19:40.548Z,1358.00
2023-05-31T09:20:40.558Z,1318.00
2023-05-31T09:21:40.577Z,1341.00
2023-05-31T09:22:40.542Z,1329.00
2023-05-31T09:23:40.548Z,1343.00
2023-05-31T09:24:40.542Z,1276.00
2023-05-31T09:25:40.523Z,1202.00
2023-05-31T09:26:40.532Z,1214.00
2023-05-31T09:27:40.538Z,1152.00
2023-05-31T09:28:40.515Z,1212.00
2023-05-31T09:29:40.523Z,1148.00
2023-05-31T09:30:40.511Z,1175.00
2023-05-31T09:31:40.952Z,1168.00
2023-05-31T09:32:40.518Z,1087.00
2023-05-31T09:33:40.488Z,1047.00
2023-05-31T09:34:40.468Z,1071.00
2023-05-31T09:35:40.469Z,1027.00
2023-05-31T09:36:40.973Z,1031.00
2023-05-31T09:37:40.463Z,1073.00
2023-05-31T09:38:40.456Z,1073.00
2023-05-31T09:39:40.431Z,1047.00
2023-05-31T09:40:40.431Z,988.00
2023-05-31T09:41:40.406Z,968.00
2023-05-31T09:42:40.404Z,1012.00
2023-05-31T09:43:40.397Z,1010.00
2023-05-31T09:44:40.381Z,1018.00
2023-05-31T09:45:40.430Z,1024.00
2023-05-31T09:46:40.401Z,977.00
2023-05-31T09:47:40.498Z,935.00
2023-05-31T09:48:40.484Z,952.00
2023-05-31T09:49:40.539Z,934.00
2023-05-31T09:50:40.571Z,946.00
2023-05-31T09:51:40.987Z,932.00
2023-05-31T09:52:40.661Z,934.00
2023-05-31T09:53:40.712Z,898.00
2023-05-31T09:54:40.736Z,854.00
2023-05-31T09:55:40.796Z,883.00
2023-05-31T09:56:40.864Z,882.00
2023-05-31T09:57:40.874Z,874.00
2023-05-31T09:58:40.930Z,865.00
2023-05-31T09:59:40.958Z,843.00
2023-05-31T10:00:41.015Z,873.00
2023-05-31T10:01:41.507Z,897.00
2023-05-31T10:02:41.207Z,844.00
2023-05-31T10:03:41.219Z,850.00
2023-05-31T10:04:41.222Z,809.00
2023-05-31T10:05:41.278Z,843.00
2023-05-31T10:06:41.448Z,854.00
2023-05-31T10:07:41.400Z,858.00
2023-05-31T10:08:41.387Z,807.00
2023-05-31T10:09:41.419Z,820.00
2023-05-31T10:10:41.467Z,800.00
2023-05-31T10:11:41.967Z,801.00
2023-05-31T10:12:41.563Z,741.00
2023-05-31T10:13:41.634Z,711.00
2023-05-31T10:14:41.679Z,695.00
2023-05-31T10:15:41.745Z,736.00
2023-05-31T10:16:41.746Z,730.00
2023-05-31T10:17:42.011Z,719.00
2023-05-31T10:18:41.815Z,725.00
2023-05-31T10:19:41.894Z,745.00
2023-05-31T10:20:41.938Z,717.00
2023-05-31T10:21:41.990Z,722.00
2023-05-31T10:22:42.478Z,730.00
2023-05-31T10:23:42.112Z,640.00
2023-05-31T10:24:42.125Z,651.00
2023-05-31T10:25:42.174Z,626.00
2023-05-31T10:26:42.229Z,641.00
2023-05-31T10:27:42.472Z,624.00
2023-05-31T10:28:42.304Z,597.00
2023-05-31T10:29:42.962Z,605.00
2023-05-31T10:30:42.395Z,607.00
2023-05-31T10:31:42.443Z,598.00
2023-05-31T10:32:42.487Z,611.00
2023-05-31T10:33:42.483Z,618.00
2023-05-31T10:34:42.527Z,606.00
2023-05-31T10:35:42.613Z,608.00
2023-05-31T10:36:42.633Z,587.00
2023-05-31T10:37:43.001Z,589.00
2023-05-31T10:38:42.713Z,578.00
2023-05-31T10:39:42.772Z,578.00
2023-05-31T10:40:43.823Z,567.00
2023-05-31T10:41:42.885Z,575.00
2023-05-31T10:42:42.991Z,581.00
2023-05-31T10:43:43.019Z,636.00
2023-05-31T10:44:42.995Z,580.00
2023-05-31T10:45:43.068Z,501.00
2023-05-31T10:46:43.198Z,514.00
2023-05-31T10:47:43.516Z,521.00
2023-05-31T10:48:43.174Z,500.00
2023-05-31T10:49:43.214Z,508.00
2023-05-31T10:50:43.214Z,575.00
2023-05-31T10:51:43.237Z,742.00
2023-05-31T10:52:43.244Z,892.00
2023-05-31T10:53:43.200Z,1012.00
2023-05-31T10:54:43.208Z,1035.00
2023-05-31T10:55:43.253Z,936.00
2023-05-31T10:56:43.263Z,906.00
2023-05-31T10:57:43.507Z,860.00
2023-05-31T10:58:43.301Z,1049.00
2023-05-31T10:59:43.347Z,1225.00
2023-05-31T11:00:43.504Z,1319.00
2023-05-31T11:01:43.473Z,1352.00
2023-05-31T11:02:44.049Z,1383.00
2023-05-31T11:03:43.616Z,1440.00
2023-05-31T11:04:43.692Z,1482.00
2023-05-31T11:05:43.666Z,1548.00
2023-05-31T11:06:43.702Z,1569.00
2023-05-31T11:07:43.970Z,1593.00
2023-05-31T11:08:43.782Z,1630.00
2023-05-31T11:09:43.843Z,1658.00
2023-05-31T11:10:43.864Z,1632.00
2023-05-31T11:11:43.891Z,1641.00
2023-05-31T11:12:43.988Z,1698.00
2023-05-31T11:13:43.946Z,1713.00
2023-05-31T11:14:43.996Z,1762.00
2023-05-31T11:15:43.991Z,1827.00
2023-05-31T11:16:44.162Z,1840.00
2023-05-31T11:17:44.531Z,1967.00
2023-05-31T11:18:44.108Z,2094.00
2023-05-31T11:19:44.081Z,2132.00
2023-05-31T11:20:44.137Z,2075.00
2023-05-31T11:21:44.124Z,1997.00
2023-05-31T11:22:44.521Z,1988.00
2023-05-31T11:23:44.130Z,1996.00
2023-05-31T11:24:44.132Z,2025.00
2023-05-31T11:25:44.185Z,2036.00
2023-05-31T11:26:44.182Z,2026.00
2023-05-31T11:27:44.506Z,2061.00
2023-05-31T11:28:44.201Z,2069.00
2023-05-31T11:29:44.204Z,2047.00
2023-05-31T11:30:44.208Z,2008.00
2023-05-31T11:31:44.247Z,1980.00
2023-05-31T11:32:44.258Z,1868.00
2023-05-31T11:33:57.497Z,1822.00
2023-05-31T11:34:45.210Z,1823.00
2023-05-31T11:35:44.279Z,1858.00
2023-05-31T11:36:44.188Z,1912.00
2023-05-31T11:37:44.543Z,1871.00
2023-05-31T11:38:44.565Z,1784.00
2023-05-31T11:39:44.234Z,1681.00
2023-05-31T11:40:44.186Z,1775.00
2023-05-31T11:41:44.194Z,1792.00
2023-05-31T11:42:44.535Z,1903.00
2023-05-31T11:43:44.173Z,1628.00
2023-05-31T11:44:44.178Z,1636.00
2023-05-31T11:45:44.152Z,1703.00
2023-05-31T11:46:44.184Z,1715.00
2023-05-31T11:47:44.197Z,1644.00
2023-05-31T11:48:44.142Z,1580.00
2023-05-31T11:49:44.109Z,1508.00
2023-05-31T11:50:44.160Z,1422.00
2023-05-31T11:51:44.187Z,1422.00
2023-05-31T11:52:44.527Z,1374.00
2023-05-31T11:53:44.228Z,1327.00
2023-05-31T11:54:44.249Z,1303.00
2023-05-31T11:55:44.307Z,1245.00
2023-05-31T11:56:44.354Z,1165.00
2023-05-31T11:57:44.549Z,1182.00
2023-05-31T11:58:44.450Z,1122.00
2023-05-31T11:59:44.498Z,1114.00
2023-05-31T12:00:44.587Z,1087.00
2023-05-31T12:01:44.610Z,1071.00
2023-05-31T12:02:45.065Z,1076.00
2023-05-31T12:03:45.033Z,1039.00
2023-05-31T12:04:44.865Z,1036.00
2023-05-31T12:05:44.832Z,952.00
2023-05-31T12:06:44.933Z,883.00
2023-05-31T12:07:45.013Z,905.00
2023-05-31T12:08:45.030Z,854.00
2023-05-31T12:09:45.095Z,861.00